Time;durP1;ratioP1;P1;durP2;ratioP2;P2;SDS_P1;SDS_P2;PMS_P1;PMS_P2;Temp;Humidity;BMP_temperature;BMP_pressure;BME280_temperature;BME280_humidity;BME280_pressure;Samples;Min_cycle;Max_cycle;Signal;HPM_P1;HPM_P2
2021/05/29 00:02:22;;;;;;;3.60;3.30;;;12.90;99.90;;;;;;5054849;28;20178;-70
2021/05/29 00:04:48;;;;;;;5.10;3.13;;;12.90;99.90;;;;;;5050937;28;20181;-70
2021/05/29 00:07:13;;;;;;;4.30;3.07;;;12.90;99.90;;;;;;5065117;28;20264;-70
2021/05/29 00:09:39;;;;;;;4.13;3.83;;;12.90;99.90;;;;;;5063096;28;20546;-70
2021/05/29 00:12:07;;;;;;;4.13;3.53;;;12.90;99.90;;;;;;5050639;28;20170;-70
2021/05/29 00:14:35;;;;;;;3.40;3.10;;;13.00;99.90;;;;;;5063151;28;20435;-70
2021/05/29 00:17:00;;;;;;;3.90;3.60;;;12.90;99.90;;;;;;5069721;28;20510;-70
2021/05/29 00:19:26;;;;;;;3.13;2.87;;;12.90;99.90;;;;;;5068593;28;20454;-69
2021/05/29 00:21:52;;;;;;;3.83;3.53;;;12.90;99.90;;;;;;5061806;28;20510;-69
2021/05/29 00:24:17;;;;;;;4.17;3.77;;;12.90;99.90;;;;;;5053374;28;20624;-70
2021/05/29 00:26:43;;;;;;;3.63;3.33;;;12.80;99.90;;;;;;5054060;28;20180;-69
2021/05/29 00:29:08;;;;;;;4.73;4.33;;;12.80;99.90;;;;;;5056268;28;20740;-69
2021/05/29 00:31:34;;;;;;;3.80;3.50;;;12.80;99.90;;;;;;5066317;28;20177;-69
2021/05/29 00:34:00;;;;;;;4.00;3.60;;;12.80;99.90;;;;;;5050643;28;20173;-69
2021/05/29 00:36:25;;;;;;;3.53;3.27;;;12.60;99.90;;;;;;5050418;28;20200;-72
2021/05/29 00:38:51;;;;;;;3.53;3.23;;;12.50;99.90;;;;;;5050338;28;20551;-69
2021/05/29 00:41:18;;;;;;;3.50;3.30;;;12.50;99.90;;;;;;5050638;28;20189;-69
2021/05/29 00:43:44;;;;;;;5.27;4.13;;;12.40;99.90;;;;;;5054618;28;20188;-69
2021/05/29 00:46:10;;;;;;;3.50;3.27;;;12.50;99.90;;;;;;5071572;28;20484;-69
2021/05/29 00:48:37;;;;;;;5.13;3.67;;;12.50;99.90;;;;;;5054254;28;20521;-72
2021/05/29 00:51:03;;;;;;;4.33;3.40;;;12.50;99.90;;;;;;5054732;28;20168;-69
2021/05/29 00:53:31;;;;;;;4.03;3.70;;;12.70;99.90;;;;;;5074181;28;20422;-69
2021/05/29 00:55:58;;;;;;;3.33;3.13;;;12.70;99.90;;;;;;5057361;28;20535;-69
2021/05/29 00:58:25;;;;;;;4.00;3.63;;;12.60;99.90;;;;;;5054808;28;20523;-69
2021/05/29 01:00:51;;;;;;;5.73;4.00;;;12.60;99.90;;;;;;5073436;28;20431;-69
2021/05/29 01:03:17;;;;;;;3.70;3.40;;;12.60;99.90;;;;;;5056806;28;20535;-72
2021/05/29 01:05:43;;;;;;;3.83;3.53;;;12.50;99.90;;;;;;5053213;28;20996;-72
2021/05/29 01:08:09;;;;;;;3.90;3.60;;;12.40;99.90;;;;;;5067759;28;20296;-72
2021/05/29 01:10:36;;;;;;;3.70;3.40;;;12.40;99.90;;;;;;5073767;28;20419;-71
2021/05/29 01:13:04;;;;;;;3.50;3.20;;;12.40;99.90;;;;;;5059771;28;20420;-72
2021/05/29 01:15:36;;;;;;;3.93;3.60;;;12.40;99.90;;;;;;5054398;28;20439;-69
2021/05/29 01:18:07;;;;;;;3.80;3.50;;;12.40;99.90;;;;;;5067376;28;20446;-72
2021/05/29 01:20:33;;;;;;;4.30;3.50;;;12.50;99.90;;;;;;5073821;28;20419;-71
2021/05/29 01:22:59;;;;;;;3.53;2.97;;;12.60;99.90;;;;;;5060936;28;20509;-72
2021/05/29 01:25:28;;;;;;;3.83;3.50;;;12.50;99.90;;;;;;5054837;28;20423;-71
2021/05/29 01:28:05;;;;;;;3.83;3.37;;;12.50;99.90;;;;;;5053754;28;20448;-71
2021/05/29 01:30:46;;;;;;;3.50;3.30;;;12.40;99.90;;;;;;5057407;28;20568;-71
2021/05/29 01:33:15;;;;;;;4.07;3.77;;;12.30;99.90;;;;;;5064139;28;20797;-71
2021/05/29 01:35:42;;;;;;;4.30;3.90;;;12.30;99.90;;;;;;5055806;28;20427;-71
2021/05/29 01:38:08;;;;;;;5.17;4.67;;;12.30;99.90;;;;;;5063148;28;20457;-71
2021/05/29 01:40:34;;;;;;;4.57;4.17;;;12.20;99.90;;;;;;5058839;28;20455;-72
2021/05/29 01:43:02;;;;;;;4.60;4.20;;;12.30;99.90;;;;;;5061428;28;20481;-71
2021/05/29 01:45:29;;;;;;;4.80;4.20;;;12.30;99.90;;;;;;5056884;28;20182;-71
2021/05/29 01:47:55;;;;;;;3.63;3.10;;;12.30;99.90;;;;;;5057629;28;20459;-71
2021/05/29 01:50:23;;;;;;;3.47;3.20;;;12.40;99.90;;;;;;5067779;28;20522;-72
2021/05/29 01:52:58;;;;;;;4.03;3.70;;;12.40;99.90;;;;;;5053551;28;20416;-72
2021/05/29 01:55:28;;;;;;;4.07;3.67;;;12.30;99.90;;;;;;5069522;28;20561;-72
2021/05/29 01:57:56;;;;;;;4.63;4.33;;;12.30;99.90;;;;;;5068430;28;20427;-71
2021/05/29 02:00:24;;;;;;;3.53;3.23;;;12.20;99.90;;;;;;5053802;28;20432;-72
2021/05/29 02:02:50;;;;;;;4.00;3.50;;;12.20;99.90;;;;;;5059323;28;20446;-71
2021/05/29 02:05:19;;;;;;;4.37;3.93;;;12.20;99.90;;;;;;5069573;28;20431;-71
2021/05/29 02:07:46;;;;;;;4.70;4.20;;;12.20;99.90;;;;;;5072111;28;20975;-71
2021/05/29 02:10:15;;;;;;;4.27;3.97;;;12.30;99.90;;;;;;5052719;28;20430;-71
2021/05/29 02:12:44;;;;;;;4.07;3.77;;;12.20;99.90;;;;;;5053247;28;20428;-71
2021/05/29 02:15:11;;;;;;;3.70;3.40;;;12.10;99.90;;;;;;5058335;28;20988;-71
2021/05/29 02:17:37;;;;;;;4.03;3.73;;;12.10;99.90;;;;;;5072729;28;20962;-71
2021/05/29 02:20:05;;;;;;;3.83;3.53;;;12.10;99.90;;;;;;5058501;28;20455;-70
2021/05/29 02:22:32;;;;;;;4.70;4.30;;;12.20;99.90;;;;;;5053878;28;20177;-71
2021/05/29 02:24:57;;;;;;;3.90;3.70;;;12.20;99.90;;;;;;5053975;28;20435;-70
2021/05/29 02:27:23;;;;;;;4.20;3.90;;;12.10;99.90;;;;;;5059671;28;20431;-71
2021/05/29 02:29:48;;;;;;;4.50;4.20;;;12.10;99.90;;;;;;5060071;28;20296;-71
2021/05/29 02:32:14;;;;;;;4.37;4.07;;;12.10;99.90;;;;;;5057607;28;20233;-71
2021/05/29 02:34:39;;;;;;;6.53;4.47;;;12.20;99.90;;;;;;5067509;28;20535;-71
2021/05/29 02:37:05;;;;;;;4.00;3.70;;;12.10;99.90;;;;;;5052668;28;20184;-71
2021/05/29 02:39:30;;;;;;;4.90;4.40;;;12.00;99.90;;;;;;5061895;28;20266;-71
2021/05/29 02:41:56;;;;;;;4.13;3.80;;;12.00;99.90;;;;;;5059336;28;20926;-71
2021/05/29 02:44:21;;;;;;;4.50;4.10;;;12.00;99.90;;;;;;5054243;28;20275;-71
2021/05/29 02:46:47;;;;;;;4.00;3.70;;;12.00;99.90;;;;;;5072075;28;20266;-71
2021/05/29 02:49:12;;;;;;;3.80;3.50;;;12.00;99.90;;;;;;5071943;28;20200;-71
2021/05/29 02:51:38;;;;;;;6.00;3.53;;;12.10;99.90;;;;;;5057519;28;20541;-71
2021/05/29 02:54:04;;;;;;;4.10;3.80;;;12.00;99.90;;;;;;5066073;28;20726;-72
2021/05/29 02:56:29;;;;;;;4.23;3.93;;;12.00;99.90;;;;;;5051231;28;20169;-71
2021/05/29 02:58:55;;;;;;;5.10;3.90;;;12.00;99.90;;;;;;5055654;28;20451;-71
2021/05/29 03:01:20;;;;;;;3.80;3.50;;;12.00;99.90;;;;;;5071523;28;20181;-71
2021/05/29 03:03:46;;;;;;;4.07;3.77;;;12.00;99.90;;;;;;5052578;28;20200;-71
2021/05/29 03:06:11;;;;;;;4.80;4.40;;;11.80;99.90;;;;;;5053114;28;20197;-71
2021/05/29 03:08:37;;;;;;;4.13;3.83;;;11.70;99.90;;;;;;5055650;28;20266;-72
2021/05/29 03:11:02;;;;;;;5.10;4.70;;;11.60;99.90;;;;;;5057733;28;20192;-71
2021/05/29 03:13:28;;;;;;;4.43;4.13;;;11.60;99.90;;;;;;5063282;28;20262;-71
2021/05/29 03:15:53;;;;;;;4.93;4.50;;;11.50;99.90;;;;;;5071418;28;20230;-72
2021/05/29 03:18:19;;;;;;;4.97;4.57;;;11.50;99.90;;;;;;5070203;28;20228;-71
2021/05/29 03:20:44;;;;;;;4.13;3.80;;;11.50;99.90;;;;;;5051841;28;20170;-71
2021/05/29 03:23:10;;;;;;;3.93;3.63;;;11.40;99.90;;;;;;5052822;28;20200;-71
2021/05/29 03:25:36;;;;;;;3.93;3.63;;;11.40;99.90;;;;;;5050583;28;20181;-71
2021/05/29 03:28:02;;;;;;;4.37;3.97;;;11.40;99.90;;;;;;5052569;28;20209;-71
2021/05/29 03:30:29;;;;;;;4.40;4.10;;;11.40;99.90;;;;;;5056711;28;20181;-71
2021/05/29 03:32:56;;;;;;;4.40;4.00;;;11.40;99.90;;;;;;5058934;28;21049;-71
2021/05/29 03:35:22;;;;;;;6.37;4.80;;;11.40;99.90;;;;;;5054185;28;20481;-71
2021/05/29 03:37:48;;;;;;;3.80;3.50;;;11.40;99.90;;;;;;5064494;28;20521;-71
2021/05/29 03:40:15;;;;;;;4.03;3.70;;;11.50;99.90;;;;;;5066865;28;20505;-71
2021/05/29 03:42:41;;;;;;;6.80;5.03;;;11.50;99.90;;;;;;5051303;28;20170;-71
2021/05/29 03:45:12;;;;;;;3.80;3.43;;;11.40;99.90;;;;;;5053669;28;20448;-71
2021/05/29 03:47:38;;;;;;;4.67;4.20;;;11.40;99.90;;;;;;5081543;28;20431;-71
2021/05/29 03:50:04;;;;;;;6.40;4.33;;;11.40;99.90;;;;;;5057548;28;20448;-71
2021/05/29 03:52:29;;;;;;;4.17;3.83;;;11.30;99.90;;;;;;5061997;28;20246;-71
2021/05/29 03:54:55;;;;;;;6.27;5.43;;;11.30;99.90;;;;;;5070972;28;20416;-71
2021/05/29 03:57:20;;;;;;;4.80;4.40;;;11.40;99.90;;;;;;5070225;28;20181;-71
2021/05/29 03:59:46;;;;;;;4.83;4.33;;;11.40;99.90;;;;;;5070458;28;20602;-71
2021/05/29 04:02:11;;;;;;;4.43;4.13;;;11.60;99.90;;;;;;5064615;28;20851;-71
2021/05/29 04:04:37;;;;;;;5.47;5.00;;;11.70;99.90;;;;;;5051163;28;20174;-71
2021/05/29 04:07:03;;;;;;;4.20;3.80;;;11.80;99.90;;;;;;5050844;28;20590;-71
2021/05/29 04:09:28;;;;;;;4.10;3.80;;;12.00;99.90;;;;;;5062608;28;20205;-71
2021/05/29 04:11:54;;;;;;;3.97;3.60;;;12.20;99.90;;;;;;5068595;28;20173;-71
2021/05/29 04:14:19;;;;;;;5.70;5.20;;;12.30;99.90;;;;;;5052541;28;20685;-71
2021/05/29 04:16:45;;;;;;;4.37;4.07;;;12.40;99.90;;;;;;5051517;28;20173;-71
2021/05/29 04:19:11;;;;;;;4.57;4.27;;;12.40;99.90;;;;;;5056241;28;20272;-71
2021/05/29 04:21:36;;;;;;;4.50;4.17;;;12.50;99.90;;;;;;5069201;28;20188;-71
2021/05/29 04:24:02;;;;;;;5.50;5.00;;;12.60;99.90;;;;;;5070743;28;20538;-71
2021/05/29 04:26:27;;;;;;;5.10;4.57;;;12.70;99.90;;;;;;5065596;28;20182;-71
2021/05/29 04:28:53;;;;;;;6.63;4.97;;;12.80;99.90;;;;;;5062305;28;20205;-71
2021/05/29 04:31:19;;;;;;;6.17;3.80;;;12.80;99.90;;;;;;5064347;28;20610;-71
2021/05/29 04:33:44;;;;;;;5.03;4.60;;;12.80;99.90;;;;;;5070053;28;20639;-71
2021/05/29 04:36:10;;;;;;;5.20;4.70;;;12.80;99.90;;;;;;5066316;28;20180;-71
2021/05/29 04:38:36;;;;;;;5.67;5.03;;;12.80;99.90;;;;;;5052207;28;20255;-71
2021/05/29 04:41:01;;;;;;;4.80;4.40;;;13.00;99.90;;;;;;5067525;28;20181;-71
2021/05/29 04:43:27;;;;;;;5.37;4.87;;;13.30;99.90;;;;;;5069931;28;20214;-71
2021/05/29 04:45:52;;;;;;;5.17;4.87;;;13.40;99.90;;;;;;5050798;28;20230;-71
2021/05/29 04:48:18;;;;;;;5.43;4.93;;;13.60;99.90;;;;;;5050615;28;20240;-71
2021/05/29 04:53:28;;;;;;;4.70;4.30;;;13.80;99.90;;;;;;5070141;28;20283;-71
2021/05/29 04:55:54;;;;;;;5.70;5.30;;;13.90;99.90;;;;;;5063656;28;20473;-71
2021/05/29 04:58:20;;;;;;;5.70;5.20;;;14.00;99.90;;;;;;5070219;28;20197;-69
2021/05/29 05:00:46;;;;;;;7.17;6.33;;;14.30;99.90;;;;;;5068222;28;20184;-70
2021/05/29 05:03:12;;;;;;;5.20;4.80;;;14.40;99.90;;;;;;5054696;28;20800;-70
2021/05/29 05:05:37;;;;;;;5.00;4.60;;;14.60;99.90;;;;;;5058786;28;20423;-69
2021/05/29 05:08:03;;;;;;;6.93;5.10;;;14.70;99.90;;;;;;5051292;28;20212;-70
2021/05/29 05:10:29;;;;;;;5.30;4.80;;;14.80;99.90;;;;;;5065778;28;20173;-69
2021/05/29 05:12:54;;;;;;;6.83;4.70;;;14.90;99.90;;;;;;5070412;28;20302;-70
2021/05/29 05:15:20;;;;;;;5.70;5.30;;;15.00;99.90;;;;;;5057764;28;20460;-70
2021/05/29 05:17:46;;;;;;;4.17;3.87;;;15.10;99.90;;;;;;5050731;28;20327;-69
2021/05/29 05:20:12;;;;;;;4.27;3.87;;;15.20;99.90;;;;;;5050175;28;20178;-70
2021/05/29 05:22:38;;;;;;;5.00;4.60;;;15.30;99.90;;;;;;5050226;28;20577;-69
2021/05/29 05:25:05;;;;;;;4.50;4.20;;;15.30;99.90;;;;;;5050078;28;20420;-70
2021/05/29 05:27:31;;;;;;;4.47;3.90;;;15.40;99.90;;;;;;5062894;28;20207;-69
2021/05/29 05:29:57;;;;;;;4.93;4.53;;;15.40;99.90;;;;;;5071356;28;20466;-70
2021/05/29 05:32:22;;;;;;;4.57;4.17;;;15.50;99.90;;;;;;5073882;28;20955;-70
2021/05/29 05:34:49;;;;;;;4.90;4.50;;;15.70;99.90;;;;;;5073853;28;20165;-70
2021/05/29 05:37:14;;;;;;;5.07;4.67;;;15.90;99.90;;;;;;5073643;28;20161;-70
2021/05/29 05:39:40;;;;;;;5.50;5.00;;;16.00;99.90;;;;;;5073316;28;20880;-70
2021/05/29 05:42:06;;;;;;;5.60;5.20;;;16.20;99.90;;;;;;5073632;28;20552;-70
2021/05/29 05:44:32;;;;;;;5.20;4.83;;;16.50;99.90;;;;;;5073311;28;20216;-70
2021/05/29 05:46:57;;;;;;;4.20;3.90;;;16.70;99.90;;;;;;5073537;28;20462;-70
2021/05/29 05:49:23;;;;;;;4.47;4.17;;;16.80;99.90;;;;;;5074210;28;20207;-70
2021/05/29 05:51:49;;;;;;;5.30;4.80;;;17.10;99.90;;;;;;5084570;28;20573;-70
2021/05/29 05:54:14;;;;;;;4.23;3.93;;;17.40;99.90;;;;;;5073584;28;20249;-70
2021/05/29 05:56:40;;;;;;;5.53;5.13;;;17.50;99.90;;;;;;5087564;28;20172;-70
2021/05/29 05:59:05;;;;;;;4.80;4.37;;;17.60;99.90;;;;;;5087578;28;20217;-70
2021/05/29 06:01:31;;;;;;;5.47;5.07;;;17.50;99.90;;;;;;5076181;28;20249;-69
2021/05/29 06:03:56;;;;;;;4.77;4.37;;;17.60;99.90;;;;;;5073524;28;20173;-70
2021/05/29 06:06:25;;;;;;;5.50;4.50;;;17.60;99.90;;;;;;5060877;28;20201;-69
2021/05/29 06:08:53;;;;;;;4.90;4.50;;;17.60;99.90;;;;;;5072996;28;20282;-70
2021/05/29 06:11:19;;;;;;;4.63;3.87;;;17.50;99.90;;;;;;5078576;28;21006;-70
2021/05/29 06:21:36;;;;;;;4.43;4.07;;;17.00;99.90;;;;;;5068051;28;20443;-69
2021/05/29 06:24:01;;;;;;;4.60;4.07;;;17.10;99.90;;;;;;5061087;28;20474;-69
2021/05/29 06:26:27;;;;;;;10.43;5.30;;;17.10;99.90;;;;;;5052785;28;20953;-69
2021/05/29 06:28:53;;;;;;;5.27;4.03;;;17.30;99.90;;;;;;5071152;28;20741;-69
2021/05/29 06:31:18;;;;;;;6.50;4.13;;;17.30;99.90;;;;;;5072691;28;20197;-69
2021/05/29 06:33:44;;;;;;;6.03;5.43;;;17.50;99.90;;;;;;5073099;28;20202;-70
2021/05/29 06:36:10;;;;;;;4.40;3.87;;;17.70;99.90;;;;;;5063968;28;20541;-70
2021/05/29 06:38:36;;;;;;;3.60;3.30;;;17.90;99.90;;;;;;5060742;28;20203;-69
2021/05/29 06:41:02;;;;;;;4.20;3.90;;;18.10;99.90;;;;;;5063858;28;20176;-69
2021/05/29 06:43:27;;;;;;;4.27;3.97;;;18.20;99.90;;;;;;5072579;28;20431;-69
2021/05/29 06:45:53;;;;;;;3.60;3.40;;;18.50;99.90;;;;;;5072315;28;20447;-70
2021/05/29 06:48:20;;;;;;;4.10;3.60;;;18.60;99.90;;;;;;5072161;28;20293;-70
2021/05/29 06:50:57;;;;;;;3.90;3.60;;;18.60;99.90;;;;;;5071945;28;20183;-69
2021/05/29 06:53:38;;;;;;;4.97;3.70;;;18.90;99.90;;;;;;5065692;28;20427;-70
2021/05/29 06:58:49;;;;;;;4.30;3.90;;;19.20;98.50;;;;;;5052298;28;20443;-70
2021/05/29 07:01:16;;;;;;;9.20;8.27;;;19.20;99.20;;;;;;5052020;28;20435;-70
2021/05/29 07:03:42;;;;;;;3.77;3.57;;;19.40;99.00;;;;;;5052243;28;20902;-67
2021/05/29 07:06:07;;;;;;;3.97;3.67;;;19.40;98.00;;;;;;5051956;28;20458;-66
2021/05/29 07:08:33;;;;;;;6.10;3.83;;;19.40;98.10;;;;;;5052125;28;20538;-66
2021/05/29 07:10:58;;;;;;;3.73;3.43;;;19.40;97.80;;;;;;5050979;28;20893;-66
2021/05/29 07:13:24;;;;;;;4.13;3.83;;;19.50;97.80;;;;;;5051600;28;20184;-66
2021/05/29 07:15:50;;;;;;;4.30;3.17;;;19.50;97.50;;;;;;5051970;28;20165;-66
2021/05/29 07:18:16;;;;;;;3.60;3.30;;;19.60;97.30;;;;;;5051550;28;20280;-66
2021/05/29 07:20:42;;;;;;;4.50;4.10;;;19.70;96.80;;;;;;5051959;28;20177;-66
2021/05/29 07:23:09;;;;;;;4.00;3.60;;;19.70;96.50;;;;;;5051947;28;20452;-66
2021/05/29 07:25:36;;;;;;;5.13;4.73;;;19.60;96.00;;;;;;5051958;28;20423;-66
2021/05/29 07:28:02;;;;;;;3.90;3.20;;;19.60;96.10;;;;;;5051723;28;20849;-66
2021/05/29 07:30:28;;;;;;;3.20;3.00;;;19.60;95.00;;;;;;5052463;28;20440;-66
2021/05/29 07:32:54;;;;;;;7.03;3.73;;;19.60;95.40;;;;;;5051488;28;20419;-66
2021/05/29 07:35:21;;;;;;;3.90;3.50;;;19.40;95.30;;;;;;5069088;28;20216;-66
2021/05/29 07:37:46;;;;;;;4.13;3.30;;;19.50;95.90;;;;;;5063467;28;20994;-66
2021/05/29 07:40:13;;;;;;;4.27;3.97;;;19.70;94.20;;;;;;5051270;28;20420;-66
2021/05/29 07:42:40;;;;;;;3.17;2.97;;;19.80;93.90;;;;;;5058535;28;20213;-66
2021/05/29 07:45:06;;;;;;;3.77;3.43;;;20.10;92.60;;;;;;5068191;28;20567;-66
2021/05/29 07:47:33;;;;;;;3.40;2.50;;;20.00;92.40;;;;;;5067063;28;20461;-66
2021/05/29 07:49:59;;;;;;;3.73;3.30;;;20.20;92.00;;;;;;5050961;28;20889;-66
2021/05/29 07:52:24;;;;;;;3.43;3.13;;;20.30;91.80;;;;;;5051094;28;20546;-66
2021/05/29 07:54:50;;;;;;;3.53;2.73;;;20.40;90.30;;;;;;5051079;28;20470;-66
2021/05/29 07:57:15;;;;;;;3.50;3.20;;;20.50;90.90;;;;;;5051153;28;20178;-66
2021/05/29 07:59:42;;;;;;;4.07;3.57;;;20.30;90.20;;;;;;5054186;28;20189;-65
2021/05/29 08:02:08;;;;;;;3.10;2.90;;;20.40;93.00;;;;;;5071086;28;20618;-65
2021/05/29 08:04:34;;;;;;;3.00;2.80;;;20.50;90.10;;;;;;5071167;28;20786;-65
2021/05/29 08:06:59;;;;;;;2.40;2.20;;;20.70;88.60;;;;;;5071035;28;20496;-65
2021/05/29 08:09:25;;;;;;;3.97;3.67;;;20.90;83.80;;;;;;5051603;28;20284;-65
2021/05/29 08:11:51;;;;;;;4.03;3.10;;;21.00;85.20;;;;;;5051499;28;20635;-65
2021/05/29 08:14:17;;;;;;;3.10;2.57;;;21.20;87.80;;;;;;5063067;28;20177;-65
2021/05/29 08:16:43;;;;;;;3.00;2.53;;;21.30;84.00;;;;;;5056026;28;20557;-65
2021/05/29 08:19:11;;;;;;;2.90;2.73;;;21.20;85.10;;;;;;5070408;28;20447;-65
2021/05/29 08:21:37;;;;;;;2.83;2.63;;;21.30;80.30;;;;;;5061842;28;20178;-66
2021/05/29 08:24:04;;;;;;;2.90;2.70;;;21.10;78.80;;;;;;5061247;28;20789;-66
2021/05/29 08:26:39;;;;;;;3.63;2.50;;;21.00;79.10;;;;;;5070709;28;20501;-65
2021/05/29 08:29:06;;;;;;;2.83;2.57;;;21.00;76.80;;;;;;5058686;28;20557;-65
2021/05/29 08:31:32;;;;;;;2.43;2.33;;;20.90;77.80;;;;;;5059459;28;20863;-65
2021/05/29 08:33:57;;;;;;;2.40;2.30;;;21.10;75.80;;;;;;5070793;28;20415;-65
2021/05/29 08:36:23;;;;;;;2.80;2.60;;;21.00;74.10;;;;;;5068014;28;20565;-65
2021/05/29 08:38:49;;;;;;;2.60;2.50;;;21.10;73.30;;;;;;5059116;28;20192;-66
2021/05/29 08:41:15;;;;;;;2.80;2.60;;;21.40;74.00;;;;;;5070884;28;20419;-66
2021/05/29 08:43:42;;;;;;;2.70;2.60;;;21.80;72.00;;;;;;5055630;28;20232;-65
2021/05/29 08:46:08;;;;;;;2.47;2.37;;;22.00;72.30;;;;;;5050613;28;20972;-65
2021/05/29 08:48:33;;;;;;;3.10;2.80;;;22.00;70.70;;;;;;5050353;28;20549;-65
2021/05/29 08:51:15;;;;;;;2.97;2.70;;;21.90;68.80;;;;;;5050215;28;20331;-65
2021/05/29 08:53:48;;;;;;;5.27;4.77;;;21.80;69.10;;;;;;5055928;28;20177;-65
2021/05/29 08:56:16;;;;;;;4.73;4.20;;;21.70;70.90;;;;;;5070659;28;20407;-67
2021/05/29 08:58:42;;;;;;;7.43;6.73;;;21.90;71.30;;;;;;5069512;28;21017;-68
2021/05/29 09:01:08;;;;;;;3.00;2.80;;;22.00;73.30;;;;;;5060349;28;20539;-66
2021/05/29 09:03:40;;;;;;;8.03;3.33;;;22.30;69.10;;;;;;5064193;28;20451;-68
2021/05/29 09:06:06;;;;;;;3.13;3.00;;;22.40;68.90;;;;;;5073772;28;20472;-68
2021/05/29 09:08:31;;;;;;;3.30;2.60;;;22.60;67.90;;;;;;5068244;28;20837;-67
2021/05/29 09:10:59;;;;;;;4.80;2.83;;;22.50;66.90;;;;;;5058803;28;20416;-69
2021/05/29 09:13:29;;;;;;;3.70;2.97;;;22.60;67.40;;;;;;5056437;28;20508;-69
2021/05/29 09:16:09;;;;;;;3.30;3.10;;;22.70;65.30;;;;;;5074314;28;20441;-68
2021/05/29 09:18:45;;;;;;;10.13;3.67;;;22.90;66.10;;;;;;5074062;28;20449;-70
2021/05/29 09:21:30;;;;;;;8.20;2.43;;;23.20;64.30;;;;;;5073305;28;20931;-70
2021/05/29 09:24:21;;;;;;;2.60;2.40;;;23.30;61.90;;;;;;5073349;28;20422;-68
2021/05/29 09:26:53;;;;;;;2.53;2.33;;;23.50;59.70;;;;;;5060853;28;20443;-68
2021/05/29 09:29:24;;;;;;;4.80;4.40;;;23.50;59.60;;;;;;5073714;28;20458;-68
2021/05/29 09:32:05;;;;;;;3.90;3.47;;;23.80;63.50;;;;;;5073807;28;20414;-68
2021/05/29 09:34:39;;;;;;;4.20;2.60;;;23.90;58.60;;;;;;5073829;28;20502;-68
2021/05/29 09:37:13;;;;;;;2.17;2.07;;;24.00;58.40;;;;;;5060339;28;20933;-68
2021/05/29 09:39:41;;;;;;;2.10;2.00;;;24.20;57.30;;;;;;5053299;28;20521;-69
2021/05/29 09:42:12;;;;;;;3.77;3.47;;;24.30;57.50;;;;;;5066867;28;20509;-68
2021/05/29 09:44:41;;;;;;;2.63;2.43;;;24.50;56.80;;;;;;5065101;28;20466;-68
2021/05/29 09:47:14;;;;;;;2.13;2.03;;;24.70;57.20;;;;;;5066214;28;20924;-68
2021/05/29 09:49:53;;;;;;;5.57;3.13;;;25.10;55.60;;;;;;5065340;28;20471;-68
2021/05/29 09:52:39;;;;;;;2.80;2.47;;;26.20;54.90;;;;;;5053526;28;20435;-68
2021/05/29 09:55:12;;;;;;;4.77;3.20;;;26.60;53.10;;;;;;5053519;28;20412;-68
2021/05/29 09:57:51;;;;;;;4.93;3.20;;;26.60;53.20;;;;;;5068661;28;20438;-68
2021/05/29 10:00:18;;;;;;;4.00;3.00;;;26.40;52.60;;;;;;5052993;28;20419;-68
2021/05/29 10:03:03;;;;;;;3.30;2.30;;;26.00;53.40;;;;;;5053148;28;20453;-68
2021/05/29 10:05:30;;;;;;;3.60;3.40;;;25.10;53.90;;;;;;5053065;28;20803;-68
2021/05/29 10:07:57;;;;;;;2.80;2.07;;;24.40;55.80;;;;;;5052763;28;20440;-69
2021/05/29 10:10:24;;;;;;;2.77;2.57;;;24.10;55.40;;;;;;5052940;28;20914;-68
2021/05/29 10:12:53;;;;;;;2.30;2.20;;;23.70;56.10;;;;;;5052914;28;20832;-68
2021/05/29 10:15:19;;;;;;;2.80;2.60;;;25.00;54.60;;;;;;5052859;28;20478;-68
2021/05/29 10:17:49;;;;;;;5.13;3.93;;;26.00;53.00;;;;;;5052957;28;20469;-68
2021/05/29 10:20:16;;;;;;;4.40;4.00;;;27.40;51.70;;;;;;5052706;28;20458;-67
2021/05/29 10:22:43;;;;;;;3.40;3.10;;;28.40;50.70;;;;;;5052938;28;20885;-68
2021/05/29 10:25:13;;;;;;;2.73;2.53;;;28.00;50.40;;;;;;5052927;28;20438;-68
2021/05/29 10:27:48;;;;;;;3.30;3.00;;;28.70;50.00;;;;;;5057553;28;20426;-68
2021/05/29 10:30:14;;;;;;;2.90;2.70;;;29.10;48.80;;;;;;5072627;28;20430;-68
2021/05/29 10:32:40;;;;;;;3.60;3.07;;;29.30;47.90;;;;;;5068983;28;20510;-68
2021/05/29 10:35:10;;;;;;;4.20;2.60;;;30.30;48.70;;;;;;5067260;28;20515;-68
2021/05/29 10:37:53;;;;;;;3.00;2.80;;;29.30;47.30;;;;;;5052539;28;20666;-68
2021/05/29 10:40:19;;;;;;;2.77;2.57;;;27.90;48.60;;;;;;5053597;28;20431;-65
2021/05/29 10:42:48;;;;;;;4.30;4.00;;;27.90;49.80;;;;;;5061616;28;20817;-64
2021/05/29 10:45:19;;;;;;;3.03;2.73;;;28.30;48.30;;;;;;5066662;28;20185;-65
2021/05/29 10:48:07;;;;;;;2.80;2.70;;;29.20;47.30;;;;;;5061448;28;20489;-64
2021/05/29 10:51:30;;;;;;;2.67;2.47;;;30.60;45.00;;;;;;5061970;28;20541;-64
2021/05/29 10:53:44;;;;;;;2.47;2.37;;;32.00;42.90;;;;;;5051646;28;20439;-65
2021/05/29 10:56:15;;;;;;;3.40;3.20;;;31.80;40.80;;;;;;5077873;23;20481;-64
2021/05/29 10:59:00;;;;;;;4.07;3.10;;;32.00;41.70;;;;;;5021001;28;20429;-63
2021/05/29 11:01:36;;;;;;;2.47;2.27;;;32.40;40.00;;;;;;5021716;28;20425;-63
2021/05/29 11:04:17;;;;;;;2.07;1.97;;;32.00;39.70;;;;;;5032014;28;20984;-63
2021/05/29 11:06:48;;;;;;;2.27;2.07;;;32.70;39.00;;;;;;5012572;28;20485;-63
2021/05/29 11:09:37;;;;;;;2.50;2.30;;;32.40;38.20;;;;;;5011463;28;20470;-63
2021/05/29 11:12:04;;;;;;;2.20;2.10;;;30.60;38.00;;;;;;5022399;28;20433;-63
2021/05/29 11:14:45;;;;;;;2.20;2.10;;;30.10;38.90;;;;;;5031812;28;20466;-63
2021/05/29 11:17:12;;;;;;;1.73;1.63;;;32.10;37.80;;;;;;5019075;28;20430;-63
2021/05/29 11:19:39;;;;;;;3.53;2.47;;;34.00;36.60;;;;;;5029778;28;20429;-63
2021/05/29 11:22:07;;;;;;;2.90;2.70;;;33.40;35.20;;;;;;5024507;28;20479;-63
2021/05/29 11:24:49;;;;;;;2.77;2.60;;;34.10;35.70;;;;;;5011982;28;20501;-63
2021/05/29 11:27:28;;;;;;;1.90;1.80;;;34.50;34.10;;;;;;5011356;28;20420;-63
2021/05/29 11:30:07;;;;;;;3.10;2.20;;;34.20;33.30;;;;;;5023877;28;20564;-63
2021/05/29 11:32:56;;;;;;;1.93;1.83;;;34.00;33.30;;;;;;5032004;28;20405;-64
2021/05/29 11:35:45;;;;;;;4.40;2.00;;;34.40;33.50;;;;;;5014869;28;20891;-63
2021/05/29 11:38:26;;;;;;;5.83;5.43;;;35.70;32.50;;;;;;5011847;28;20420;-64
2021/05/29 11:40:59;;;;;;;1.77;1.67;;;36.50;31.90;;;;;;5025640;28;20468;-64
2021/05/29 11:43:39;;;;;;;2.33;1.60;;;35.90;31.40;;;;;;5031198;28;20432;-63
2021/05/29 11:46:14;;;;;;;1.70;1.50;;;34.00;54.60;;;;;;5013423;28;20446;-63
2021/05/29 11:48:47;;;;;;;4.73;4.33;;;31.80;56.60;;;;;;5012909;28;20808;-63
2021/05/29 11:51:15;;;;;;;2.10;2.00;;;30.00;57.30;;;;;;5015750;28;20469;-63
2021/05/29 11:53:42;;;;;;;1.60;1.50;;;28.60;58.00;;;;;;5029011;28;20781;-63
2021/05/29 11:56:08;;;;;;;1.97;1.87;;;29.00;41.60;;;;;;5026098;28;20458;-63
2021/05/29 11:58:45;;;;;;;2.17;2.07;;;30.80;35.30;;;;;;5011217;28;20428;-63
2021/05/29 12:01:12;;;;;;;2.47;2.27;;;31.80;34.10;;;;;;5011481;28;20589;-63
2021/05/29 12:03:52;;;;;;;2.00;1.90;;;32.40;33.50;;;;;;5009262;28;20429;-63
2021/05/29 12:06:42;;;;;;;2.43;2.07;;;33.50;32.90;;;;;;5028784;28;20479;-63
2021/05/29 12:09:15;;;;;;;2.10;1.90;;;34.20;32.20;;;;;;5028461;28;20834;-63
2021/05/29 12:12:02;;;;;;;2.37;1.80;;;34.80;31.10;;;;;;5019899;28;20425;-63
2021/05/29 12:14:33;;;;;;;1.87;1.77;;;35.00;31.60;;;;;;5027524;28;20444;-63
2021/05/29 12:17:06;;;;;;;2.10;2.00;;;35.60;31.40;;;;;;5010849;28;20637;-63
2021/05/29 12:19:49;;;;;;;2.33;2.13;;;36.40;30.20;;;;;;5021568;28;20486;-63
2021/05/29 12:22:16;;;;;;;1.47;1.37;;;36.30;29.20;;;;;;5025350;28;20495;-63
2021/05/29 12:24:53;;;;;;;2.60;2.40;;;37.00;28.20;;;;;;5010750;28;20410;-63
2021/05/29 12:27:24;;;;;;;8.17;7.70;;;36.80;28.20;;;;;;5019998;28;20949;-63
2021/05/29 12:29:56;;;;;;;1.60;1.50;;;37.20;28.30;;;;;;5025219;28;20472;-63
2021/05/29 12:32:30;;;;;;;2.40;1.20;;;37.40;28.10;;;;;;5019202;28;20946;-63
2021/05/29 12:34:56;;;;;;;1.73;1.30;;;37.40;27.40;;;;;;5018917;28;20889;-63
2021/05/29 12:37:29;;;;;;;3.03;1.50;;;35.20;28.40;;;;;;5029437;28;20468;-63
2021/05/29 12:40:07;;;;;;;1.30;1.30;;;35.40;28.50;;;;;;5014469;28;20249;-64
2021/05/29 12:42:42;;;;;;;1.60;1.50;;;36.00;29.40;;;;;;5014869;28;20420;-64
2021/05/29 12:45:25;;;;;;;1.70;1.60;;;36.50;29.40;;;;;;5020666;28;20654;-63
2021/05/29 12:47:59;;;;;;;1.70;1.60;;;34.80;30.40;;;;;;5033820;28;20424;-63
2021/05/29 12:50:28;;;;;;;2.50;1.70;;;32.10;31.90;;;;;;5033225;28;20412;-63
2021/05/29 12:53:12;;;;;;;3.63;1.60;;;30.10;33.70;;;;;;5030913;28;20873;-63
2021/05/29 12:55:38;;;;;;;1.87;1.70;;;29.60;34.20;;;;;;5030008;28;20474;-63
2021/05/29 12:58:16;;;;;;;1.63;1.37;;;30.80;34.40;;;;;;5027965;28;20778;-63
2021/05/29 13:11:40;;;;;;;2.97;2.57;;;29.50;34.70;;;;;;5014445;28;20471;-63
2021/05/29 13:14:11;;;;;;;2.83;2.00;;;30.50;33.70;;;;;;5029252;28;20433;-64
2021/05/29 13:16:56;;;;;;;2.10;1.90;;;29.70;34.00;;;;;;5033645;28;20843;-63
2021/05/29 13:19:27;;;;;;;1.67;1.57;;;28.70;35.20;;;;;;5028003;28;20460;-63
2021/05/29 13:21:59;;;;;;;3.10;2.90;;;27.50;36.10;;;;;;5029400;28;20429;-63